Time;durP1;ratioP1;P1;durP2;ratioP2;P2;SDS_P1;SDS_P2;PMS_P1;PMS_P2;Temp;Humidity;BMP_temperature;BMP_pressure;BME280_temperature;BME280_humidity;BME280_pressure;Samples;Min_cycle;Max_cycle;Signal;HPM_P1;HPM_P2
2022/11/22 00:00:40;;;;;;;40.30;19.37;;;0.60;99.90;;;;;;5009409;23;20250;-93
2022/11/22 00:03:07;;;;;;;38.00;18.47;;;0.60;99.90;;;;;;5018443;28;20171;-94
2022/11/22 00:05:32;;;;;;;38.03;17.80;;;0.60;99.90;;;;;;5017129;28;20204;-95
2022/11/22 00:07:58;;;;;;;35.87;17.67;;;0.60;99.90;;;;;;5017630;28;20189;-89
2022/11/22 00:10:24;;;;;;;39.60;18.67;;;0.60;99.90;;;;;;5472374;23;20235;-93
2022/11/22 00:12:50;;;;;;;39.63;19.13;;;0.60;99.90;;;;;;5018127;28;20268;-94
2022/11/22 00:15:15;;;;;;;39.83;18.57;;;0.60;99.90;;;;;;5019185;28;20175;-89
2022/11/22 00:17:41;;;;;;;33.40;16.83;;;0.60;99.90;;;;;;5020077;28;20292;-93
2022/11/22 00:20:10;;;;;;;37.90;18.50;;;0.60;99.90;;;;;;5002834;28;20180;-91
2022/11/22 00:22:43;;;;;;;35.03;18.07;;;0.60;99.90;;;;;;5019210;28;20183;-91
2022/11/22 00:25:09;;;;;;;42.87;18.60;;;0.60;99.90;;;;;;5021265;28;20271;-95
2022/11/22 00:27:35;;;;;;;37.17;17.03;;;0.60;99.90;;;;;;5018838;28;20252;-96
2022/11/22 00:30:00;;;;;;;35.23;16.33;;;0.60;99.90;;;;;;5020706;28;20206;-88
2022/11/22 00:32:33;;;;;;;34.23;16.10;;;0.60;99.90;;;;;;5021489;28;20182;-95
2022/11/22 00:34:59;;;;;;;34.37;16.23;;;0.60;99.90;;;;;;5019970;28;20206;-92
2022/11/22 00:37:25;;;;;;;30.63;16.10;;;0.60;99.90;;;;;;5019224;28;20190;-93
2022/11/22 00:39:50;;;;;;;33.40;16.73;;;0.60;99.90;;;;;;5019145;28;20188;-91
2022/11/22 00:42:17;;;;;;;31.47;15.67;;;0.60;99.90;;;;;;5000864;28;20271;-91
2022/11/22 00:44:42;;;;;;;33.63;15.87;;;0.60;99.90;;;;;;4983411;28;20168;-92
2022/11/22 00:47:08;;;;;;;35.93;16.37;;;0.60;99.90;;;;;;4981271;28;20211;-95
2022/11/22 00:49:34;;;;;;;35.13;16.13;;;0.60;99.90;;;;;;4980416;28;20180;-94
2022/11/22 00:52:00;;;;;;;36.13;15.37;;;0.60;99.90;;;;;;4981655;28;20211;-95
2022/11/22 00:54:25;;;;;;;32.23;15.47;;;0.60;99.90;;;;;;4981494;28;20200;-89
2022/11/22 00:56:51;;;;;;;34.10;16.80;;;0.60;99.90;;;;;;4980465;28;20181;-92
2022/11/22 00:59:16;;;;;;;33.63;15.93;;;0.60;99.90;;;;;;4983932;28;20203;-93
2022/11/22 01:01:46;;;;;;;31.60;15.53;;;0.60;99.90;;;;;;4983525;28;20267;-93
2022/11/22 01:04:12;;;;;;;32.77;15.03;;;0.70;99.90;;;;;;4980770;28;20193;-95
2022/11/22 01:06:38;;;;;;;31.77;15.47;;;0.70;99.90;;;;;;4979917;28;20211;-96
2022/11/22 01:09:03;;;;;;;32.90;15.57;;;0.60;99.90;;;;;;4980616;28;20183;-94
2022/11/22 01:11:29;;;;;;;33.33;15.93;;;0.60;99.90;;;;;;4989918;28;20610;-92
2022/11/22 01:13:55;;;;;;;32.83;16.63;;;0.70;99.90;;;;;;4997212;28;20178;-93
2022/11/22 01:16:21;;;;;;;36.83;17.20;;;0.70;99.90;;;;;;4996318;28;20646;-95
2022/11/22 01:18:46;;;;;;;31.07;14.73;;;0.60;99.90;;;;;;4982603;28;20211;-96
2022/11/22 01:21:12;;;;;;;33.40;15.53;;;0.60;99.90;;;;;;5002113;28;20188;-95
2022/11/22 01:23:40;;;;;;;30.43;14.57;;;0.70;99.90;;;;;;5004661;28;20183;-96
2022/11/22 01:26:09;;;;;;;33.17;16.40;;;0.70;99.90;;;;;;5006624;28;20208;-92
2022/11/22 01:28:36;;;;;;;34.40;15.63;;;0.70;99.90;;;;;;5018892;28;20193;-93
2022/11/22 01:31:03;;;;;;;30.80;16.37;;;0.70;99.90;;;;;;5021760;28;20179;-93
2022/11/22 01:33:32;;;;;;;33.73;15.83;;;0.70;99.90;;;;;;5002061;28;20206;-89
2022/11/22 01:35:58;;;;;;;34.30;15.67;;;0.70;99.90;;;;;;5000108;28;20614;-93
2022/11/22 01:38:24;;;;;;;34.67;16.60;;;0.70;99.90;;;;;;4998377;28;20183;-90
2022/11/22 01:40:50;;;;;;;31.43;15.43;;;0.70;99.90;;;;;;4998699;28;20179;-92
2022/11/22 01:43:22;;;;;;;35.47;15.97;;;0.70;99.90;;;;;;4998486;28;20630;-95
2022/11/22 01:46:01;;;;;;;34.47;15.90;;;0.70;99.90;;;;;;4996476;28;20723;-91
2022/11/22 01:48:51;;;;;;;34.10;17.53;;;0.80;99.90;;;;;;4999543;28;20172;-96
2022/11/22 01:51:50;;;;;;;31.80;16.20;;;0.80;99.90;;;;;;4987410;28;20531;-90
2022/11/22 01:54:20;;;;;;;34.83;16.37;;;0.80;99.90;;;;;;4975885;28;20179;-92
2022/11/22 01:56:52;;;;;;;38.87;18.23;;;0.80;99.90;;;;;;4994683;28;20178;-89
2022/11/22 01:59:21;;;;;;;37.90;18.47;;;0.80;99.90;;;;;;4996311;28;20176;-89
2022/11/22 02:01:47;;;;;;;36.00;17.27;;;0.80;99.90;;;;;;4995340;28;20633;-90
2022/11/22 02:04:16;;;;;;;41.23;19.70;;;0.70;99.90;;;;;;4980026;28;20178;-88
2022/11/22 02:07:00;;;;;;;41.00;17.90;;;0.80;99.90;;;;;;4995596;28;20207;-88
2022/11/22 02:09:27;;;;;;;39.03;17.57;;;0.70;99.90;;;;;;4995632;28;20177;-89
2022/11/22 02:11:56;;;;;;;37.40;17.90;;;0.80;99.90;;;;;;5011948;28;20237;-88
2022/11/22 02:14:25;;;;;;;31.00;15.97;;;0.80;99.90;;;;;;4998093;28;20209;-89
2022/11/22 02:16:51;;;;;;;33.03;17.03;;;0.70;99.90;;;;;;4998935;28;20207;-88
2022/11/22 02:19:45;;;;;;;41.23;18.07;;;0.70;99.90;;;;;;5014915;28;20209;-89
2022/11/22 02:22:20;;;;;;;38.47;16.60;;;0.80;99.90;;;;;;5014736;28;20167;-87
2022/11/22 02:25:06;;;;;;;33.60;16.43;;;0.80;99.90;;;;;;5014569;28;20232;-91
2022/11/22 02:27:32;;;;;;;32.23;16.63;;;0.80;99.90;;;;;;4984274;28;20225;-90
2022/11/22 02:29:58;;;;;;;34.87;17.30;;;0.80;99.90;;;;;;4998151;28;20183;-89
2022/11/22 02:32:36;;;;;;;34.67;17.27;;;0.80;99.90;;;;;;5014502;28;20560;-88
2022/11/22 02:35:14;;;;;;;35.00;17.43;;;0.80;99.90;;;;;;5014152;28;20687;-88
2022/11/22 02:37:41;;;;;;;35.53;17.40;;;0.80;99.90;;;;;;4998670;28;20175;-93
2022/11/22 02:40:09;;;;;;;33.97;17.23;;;0.80;99.90;;;;;;4999110;28;20610;-91
2022/11/22 02:42:35;;;;;;;35.87;16.20;;;0.80;99.90;;;;;;4997423;28;20211;-96
2022/11/22 02:45:01;;;;;;;32.47;17.07;;;0.80;99.90;;;;;;5015387;28;20178;-89
2022/11/22 02:47:27;;;;;;;32.30;16.87;;;0.80;99.90;;;;;;5015804;28;20215;-94
2022/11/22 02:49:53;;;;;;;35.43;17.30;;;0.80;99.90;;;;;;5015971;28;20274;-93
2022/11/22 02:52:19;;;;;;;34.00;16.60;;;0.80;99.90;;;;;;5018322;28;20261;-94
2022/11/22 02:54:45;;;;;;;32.47;17.60;;;0.90;99.90;;;;;;5019908;28;20212;-93
2022/11/22 02:57:11;;;;;;;30.00;16.50;;;0.90;99.90;;;;;;5005051;28;20240;-93
2022/11/22 02:59:37;;;;;;;34.20;17.00;;;0.90;99.90;;;;;;5005188;28;20274;-93
2022/11/22 03:02:02;;;;;;;32.73;16.73;;;0.90;99.90;;;;;;5003528;28;20183;-92
2022/11/22 03:04:30;;;;;;;28.97;15.80;;;0.90;99.90;;;;;;5003114;28;20194;-94
2022/11/22 03:06:58;;;;;;;34.27;18.00;;;0.90;99.90;;;;;;5003221;28;20680;-95
2022/11/22 03:09:25;;;;;;;33.13;16.40;;;0.90;99.90;;;;;;5004031;28;20179;-91
2022/11/22 03:11:51;;;;;;;33.10;17.40;;;0.90;99.90;;;;;;5000783;28;20250;-91
2022/11/22 03:14:17;;;;;;;34.87;17.70;;;0.90;99.90;;;;;;4998040;28;20187;-92
2022/11/22 03:16:45;;;;;;;30.33;16.40;;;0.90;99.90;;;;;;4998197;28;20185;-90
2022/11/22 03:19:10;;;;;;;32.77;18.07;;;0.90;99.90;;;;;;4998779;28;20619;-94
2022/11/22 03:21:37;;;;;;;31.83;16.27;;;0.90;99.90;;;;;;4999817;28;20227;-92
2022/11/22 03:24:06;;;;;;;28.57;16.13;;;0.90;99.90;;;;;;5000402;28;20218;-95
2022/11/22 03:26:33;;;;;;;28.67;15.33;;;1.00;99.90;;;;;;4999088;28;20214;-94
2022/11/22 03:28:59;;;;;;;31.43;16.43;;;1.00;99.90;;;;;;4999848;28;20609;-91
2022/11/22 03:31:25;;;;;;;33.60;16.13;;;1.00;99.90;;;;;;4998544;28;20197;-94
2022/11/22 03:33:52;;;;;;;30.40;15.73;;;1.00;99.90;;;;;;4983280;28;20217;-92
2022/11/22 03:36:18;;;;;;;30.47;16.70;;;1.00;99.90;;;;;;4998564;28;20172;-91
2022/11/22 03:38:44;;;;;;;30.97;16.30;;;1.00;99.90;;;;;;4997919;28;20190;-92
2022/11/22 03:41:09;;;;;;;30.77;16.17;;;1.00;99.90;;;;;;5008893;28;20187;-92
2022/11/22 03:43:41;;;;;;;31.20;15.67;;;1.00;99.90;;;;;;5018327;28;20183;-91
2022/11/22 03:46:13;;;;;;;27.00;14.97;;;1.00;99.90;;;;;;5021441;28;20207;-94
2022/11/22 03:48:39;;;;;;;30.27;15.90;;;1.00;99.90;;;;;;5004202;28;20188;-93
2022/11/22 03:51:05;;;;;;;28.77;16.40;;;1.00;99.90;;;;;;5021132;28;20182;-94
2022/11/22 03:53:36;;;;;;;31.80;15.80;;;1.00;99.90;;;;;;5003086;28;20279;-91
2022/11/22 03:56:02;;;;;;;31.27;16.10;;;1.00;99.90;;;;;;5019252;28;20265;-92
2022/11/22 03:58:28;;;;;;;31.10;15.37;;;1.00;99.90;;;;;;5003797;28;20188;-90
2022/11/22 04:00:55;;;;;;;29.53;15.73;;;1.10;99.90;;;;;;5018330;28;20187;-95
2022/11/22 04:03:32;;;;;;;25.97;14.47;;;1.10;99.90;;;;;;5021966;28;20186;-93
2022/11/22 04:05:58;;;;;;;31.27;16.63;;;1.10;99.90;;;;;;5019945;28;20234;-96
2022/11/22 04:08:23;;;;;;;30.47;16.60;;;1.10;99.90;;;;;;5019416;28;20184;-93
2022/11/22 04:10:50;;;;;;;29.30;16.37;;;1.10;99.90;;;;;;5019412;28;20231;-89
2022/11/22 04:15:05;;;;;;;29.67;16.33;;;1.10;99.90;;;;;;5004914;28;20193;-94
2022/11/22 04:16:10;;;;;;;31.83;16.33;;;1.10;99.90;;;;;;5020468;28;20190;-94
2022/11/22 04:18:37;;;;;;;27.43;14.87;;;1.10;99.90;;;;;;5019333;28;20180;-94
2022/11/22 04:26:51;;;;;;;25.50;15.60;;;1.10;99.90;;;;;;5019252;28;20696;-92
2022/11/22 04:29:18;;;;;;;29.27;16.33;;;1.10;99.90;;;;;;5021841;28;20172;-93
2022/11/22 04:34:29;;;;;;;29.07;16.00;;;1.20;99.90;;;;;;5020844;28;20235;-96
2022/11/22 04:36:55;;;;;;;32.67;17.13;;;1.20;99.90;;;;;;5019268;28;20194;-91
2022/11/22 04:39:21;;;;;;;29.13;16.80;;;1.20;99.90;;;;;;5019289;28;20183;-93
2022/11/22 04:44:39;;;;;;;29.20;15.90;;;1.20;99.90;;;;;;5021327;28;20542;-96
2022/11/22 04:44:41;;;;;;;30.17;15.80;;;1.20;99.90;;;;;;5018520;28;20595;-94
2022/11/22 04:47:08;;;;;;;28.90;15.20;;;1.20;99.90;;;;;;5003076;28;20234;-92
2022/11/22 04:49:34;;;;;;;30.20;16.60;;;1.20;99.90;;;;;;5005381;28;20186;-93
2022/11/22 04:54:45;;;;;;;26.63;15.77;;;1.20;99.90;;;;;;5018349;28;20251;-90
2022/11/22 04:57:11;;;;;;;29.73;16.37;;;1.20;99.90;;;;;;4998787;28;20211;-94
2022/11/22 04:59:36;;;;;;;30.73;17.10;;;1.20;99.90;;;;;;5000017;28;20214;-91
2022/11/22 05:02:02;;;;;;;30.27;17.50;;;1.20;99.90;;;;;;4999514;28;20716;-92
2022/11/22 05:04:28;;;;;;;27.87;16.93;;;1.20;99.90;;;;;;4999125;28;20179;-90
2022/11/22 05:06:55;;;;;;;29.53;16.97;;;1.20;99.90;;;;;;4999276;28;20293;-95
2022/11/22 05:09:21;;;;;;;30.00;16.07;;;1.20;99.90;;;;;;5000530;28;20181;-94
2022/11/22 05:11:47;;;;;;;31.00;16.70;;;1.20;99.90;;;;;;4978790;28;20243;-90
2022/11/22 05:14:14;;;;;;;28.97;16.90;;;1.20;99.90;;;;;;4977354;28;20240;-91
2022/11/22 05:16:40;;;;;;;27.17;16.43;;;1.20;99.90;;;;;;4977054;28;20607;-94
2022/11/22 05:19:06;;;;;;;29.67;16.93;;;1.20;99.90;;;;;;4976716;28;20298;-93
2022/11/22 05:21:34;;;;;;;27.23;17.30;;;1.20;99.90;;;;;;4976825;28;20188;-93
2022/11/22 05:24:03;;;;;;;32.27;17.47;;;1.20;99.90;;;;;;4960217;28;20278;-91
2022/11/22 05:26:31;;;;;;;28.63;16.87;;;1.20;99.90;;;;;;4976405;28;20254;-90
2022/11/22 05:28:58;;;;;;;29.77;16.40;;;1.20;99.90;;;;;;4977017;28;20585;-92
2022/11/22 05:31:26;;;;;;;28.17;15.83;;;1.30;99.90;;;;;;4960736;28;20197;-90
2022/11/22 05:33:55;;;;;;;29.27;17.03;;;1.20;99.90;;;;;;4960237;28;20243;-94
2022/11/22 05:36:23;;;;;;;32.67;16.57;;;1.30;99.90;;;;;;4976904;28;20169;-92
2022/11/22 05:38:49;;;;;;;34.87;18.30;;;1.30;99.90;;;;;;4977994;28;20180;-91
2022/11/22 05:41:15;;;;;;;28.27;16.17;;;1.30;99.90;;;;;;4987776;28;20191;-90
2022/11/22 05:43:42;;;;;;;29.27;16.60;;;1.30;99.90;;;;;;4980114;28;20198;-94
2022/11/22 05:46:18;;;;;;;27.60;15.97;;;1.30;99.90;;;;;;4996607;28;20215;-93
2022/11/22 05:48:46;;;;;;;31.43;16.80;;;1.30;99.90;;;;;;4997438;28;20637;-93
2022/11/22 05:51:17;;;;;;;28.53;16.30;;;1.30;99.90;;;;;;4996831;28;20241;-95
2022/11/22 05:53:43;;;;;;;27.77;16.13;;;1.30;99.90;;;;;;4998514;28;20176;-93
2022/11/22 05:56:23;;;;;;;33.77;17.10;;;1.40;99.90;;;;;;4995742;28;20263;-93
2022/11/22 05:58:49;;;;;;;30.53;16.63;;;1.40;99.90;;;;;;4996255;28;20532;-93
2022/11/22 06:01:17;;;;;;;26.87;15.30;;;1.30;99.90;;;;;;4979778;28;20180;-92
2022/11/22 06:03:43;;;;;;;27.53;15.83;;;1.30;99.90;;;;;;4980050;28;20187;-94
2022/11/22 06:06:10;;;;;;;28.17;15.77;;;1.40;99.90;;;;;;4979336;28;20222;-94
2022/11/22 06:08:39;;;;;;;30.37;16.53;;;1.30;99.90;;;;;;4978356;28;20281;-94
2022/11/22 06:11:08;;;;;;;30.73;16.77;;;1.30;99.90;;;;;;4975943;28;20232;-94
2022/11/22 06:13:38;;;;;;;28.57;16.60;;;1.40;99.90;;;;;;4959616;28;20202;-96
2022/11/22 06:16:13;;;;;;;27.73;16.13;;;1.30;99.90;;;;;;4959379;28;20180;-93
2022/11/22 06:18:39;;;;;;;29.33;15.40;;;1.30;99.90;;;;;;4960478;28;20275;-93
2022/11/22 06:21:09;;;;;;;30.00;16.00;;;1.40;99.90;;;;;;4959819;28;20207;-95
2022/11/22 06:23:35;;;;;;;31.57;16.30;;;1.40;99.90;;;;;;4960317;28;20267;-93
2022/11/22 06:26:20;;;;;;;26.07;15.93;;;1.40;99.90;;;;;;4981792;28;20276;-94
2022/11/22 06:28:48;;;;;;;24.97;14.87;;;1.40;99.90;;;;;;4966819;28;20173;-94
2022/11/22 06:31:16;;;;;;;27.07;15.73;;;1.50;99.90;;;;;;4966192;28;20184;-94
2022/11/22 06:33:44;;;;;;;28.33;16.17;;;1.50;99.90;;;;;;4982936;28;20204;-91
2022/11/22 06:36:13;;;;;;;31.83;15.40;;;1.50;99.90;;;;;;4982258;28;20203;-91
2022/11/22 06:38:40;;;;;;;28.93;16.37;;;1.50;99.90;;;;;;4966122;28;20231;-89
2022/11/22 06:41:09;;;;;;;27.93;14.90;;;1.50;99.90;;;;;;4975616;28;20192;-89
2022/11/22 06:43:36;;;;;;;26.30;14.40;;;1.50;99.90;;;;;;5001726;28;20180;-89
2022/11/22 06:46:07;;;;;;;30.80;16.00;;;1.50;99.90;;;;;;5001038;28;20211;-93
2022/11/22 06:48:35;;;;;;;28.87;15.37;;;1.50;99.90;;;;;;5000574;28;20285;-93
2022/11/22 06:51:03;;;;;;;28.97;16.63;;;1.50;99.90;;;;;;5001245;28;20188;-95
2022/11/22 06:53:30;;;;;;;28.17;16.27;;;1.50;99.90;;;;;;5000135;28;20227;-93
2022/11/22 06:56:14;;;;;;;25.10;15.07;;;1.50;99.90;;;;;;4978083;28;20207;-93
2022/11/22 06:58:41;;;;;;;25.50;14.57;;;1.50;99.90;;;;;;4985052;28;20275;-92
2022/11/22 07:01:09;;;;;;;22.67;13.33;;;1.50;99.90;;;;;;4984808;28;20187;-94
2022/11/22 07:03:36;;;;;;;23.80;14.07;;;1.50;99.90;;;;;;4984258;28;20179;-91
2022/11/22 07:06:03;;;;;;;23.33;14.40;;;1.50;99.90;;;;;;4984119;28;20211;-91
2022/11/22 07:08:28;;;;;;;25.03;14.30;;;1.50;99.90;;;;;;4984463;28;20250;-91
2022/11/22 07:10:54;;;;;;;24.30;14.20;;;1.60;99.90;;;;;;4984200;28;20238;-90
2022/11/22 07:13:20;;;;;;;24.37;13.43;;;1.60;99.90;;;;;;4984202;28;20190;-92
2022/11/22 07:15:57;;;;;;;21.17;13.33;;;1.60;99.90;;;;;;4984792;28;20187;-92
2022/11/22 07:18:23;;;;;;;25.63;14.43;;;1.60;99.90;;;;;;4981133;28;20199;-90
2022/11/22 07:20:49;;;;;;;23.60;13.23;;;1.60;99.90;;;;;;4981460;28;20208;-91
2022/11/22 07:23:15;;;;;;;24.57;14.33;;;1.50;99.90;;;;;;4981624;28;20180;-93
2022/11/22 07:25:51;;;;;;;25.20;14.70;;;1.60;99.90;;;;;;4981642;28;20252;-93
2022/11/22 07:28:17;;;;;;;24.10;15.10;;;1.60;99.90;;;;;;4980984;28;20224;-94
2022/11/22 07:30:42;;;;;;;23.43;13.90;;;1.60;99.90;;;;;;4965325;28;20184;-91
2022/11/22 07:33:08;;;;;;;25.03;14.03;;;1.70;99.90;;;;;;4965355;28;20176;-92
2022/11/22 07:35:35;;;;;;;24.03;13.40;;;1.70;99.90;;;;;;4980295;28;20183;-90
2022/11/22 07:38:01;;;;;;;24.97;14.20;;;1.70;99.90;;;;;;4979157;28;20721;-94
2022/11/22 07:40:27;;;;;;;25.07;13.50;;;1.70;99.90;;;;;;4979279;28;20172;-94
2022/11/22 07:42:52;;;;;;;27.37;14.60;;;1.70;99.90;;;;;;4985464;28;20230;-93
2022/11/22 07:45:19;;;;;;;23.87;13.43;;;1.70;99.90;;;;;;4981489;28;20226;-93
2022/11/22 07:47:45;;;;;;;24.93;14.13;;;1.70;99.90;;;;;;4981440;28;20207;-94
2022/11/22 07:50:11;;;;;;;24.33;14.20;;;1.70;99.90;;;;;;4977327;28;20195;-91
2022/11/22 07:52:37;;;;;;;28.20;14.77;;;1.60;99.90;;;;;;4997702;28;20241;-92
2022/11/22 07:55:05;;;;;;;26.00;14.20;;;1.60;99.90;;;;;;4981131;28;20272;-95
2022/11/22 07:57:31;;;;;;;22.07;13.50;;;1.70;99.90;;;;;;4981517;28;20517;-93
2022/11/22 07:59:57;;;;;;;23.77;13.33;;;1.70;99.90;;;;;;4982180;28;20280;-92
2022/11/22 08:02:23;;;;;;;24.63;14.17;;;1.70;99.90;;;;;;4981155;28;20264;-94
2022/11/22 08:04:49;;;;;;;23.60;13.53;;;1.70;99.90;;;;;;4981252;28;20178;-94
2022/11/22 08:07:17;;;;;;;23.50;13.93;;;1.70;99.90;;;;;;4980831;28;20306;-93
2022/11/22 08:09:42;;;;;;;21.17;13.97;;;1.70;99.90;;;;;;4980226;28;20180;-92
2022/11/22 08:12:08;;;;;;;27.33;14.80;;;1.70;99.90;;;;;;4999659;28;20245;-90
2022/11/22 08:14:34;;;;;;;21.97;13.30;;;1.70;99.90;;;;;;4999863;28;20206;-90
2022/11/22 08:17:00;;;;;;;21.90;13.97;;;1.70;99.90;;;;;;5017539;28;20229;-87
2022/11/22 08:19:26;;;;;;;23.07;13.40;;;1.70;99.90;;;;;;4996960;28;20195;-90
2022/11/22 08:21:52;;;;;;;20.93;13.53;;;1.70;99.90;;;;;;4998307;28;20568;-88
2022/11/22 08:24:18;;;;;;;24.50;14.97;;;1.70;99.90;;;;;;5011292;28;20205;-90
2022/11/22 08:26:44;;;;;;;23.67;14.23;;;1.80;99.90;;;;;;5002258;28;20224;-92
2022/11/22 08:29:11;;;;;;;23.30;13.83;;;1.80;99.90;;;;;;5002171;28;20186;-89
2022/11/22 08:31:38;;;;;;;24.23;13.83;;;1.80;99.90;;;;;;5001669;28;20634;-90
2022/11/22 08:34:04;;;;;;;26.53;15.80;;;1.80;99.90;;;;;;5000581;28;20229;-95
2022/11/22 08:36:30;;;;;;;25.00;14.10;;;1.80;99.90;;;;;;5000942;28;20183;-88
2022/11/22 08:38:56;;;;;;;25.70;15.13;;;1.80;99.90;;;;;;5000244;28;20187;-93
2022/11/22 08:41:22;;;;;;;23.07;13.43;;;1.80;99.90;;;;;;4999841;28;20496;-92
2022/11/22 08:43:51;;;;;;;25.00;14.30;;;1.80;99.90;;;;;;4999649;28;20220;-92
2022/11/22 08:46:19;;;;;;;22.03;14.23;;;1.80;99.90;;;;;;5017024;28;20314;-94
2022/11/22 08:48:45;;;;;;;22.77;14.30;;;1.80;99.90;;;;;;4995465;28;20184;-92
2022/11/22 08:51:13;;;;;;;26.80;13.80;;;1.80;99.90;;;;;;4996257;28;20623;-92
2022/11/22 08:53:41;;;;;;;23.87;14.50;;;1.80;99.90;;;;;;5014055;28;20179;-94
2022/11/22 08:56:10;;;;;;;22.60;13.43;;;1.80;99.90;;;;;;5016047;28;20190;-94
2022/11/22 08:58:36;;;;;;;21.17;13.63;;;1.80;99.90;;;;;;5016249;28;20272;-92
2022/11/22 09:01:07;;;;;;;22.47;13.60;;;1.80;99.90;;;;;;4999068;28;20581;-94
2022/11/22 09:03:36;;;;;;;23.50;14.37;;;1.80;99.90;;;;;;4999298;28;20179;-94
2022/11/22 09:06:08;;;;;;;23.33;14.03;;;1.80;99.90;;;;;;4998934;28;20276;-94
2022/11/22 09:08:36;;;;;;;24.77;13.27;;;1.80;99.90;;;;;;4998548;28;20233;-90
2022/11/22 09:11:07;;;;;;;22.00;13.33;;;1.90;99.90;;;;;;4998440;28;20237;-96
2022/11/22 09:13:33;;;;;;;20.60;13.10;;;1.90;99.90;;;;;;4999022;28;20175;-95
2022/11/22 09:16:10;;;;;;;20.60;12.63;;;1.90;99.90;;;;;;4998999;28;20262;-95
2022/11/22 09:18:35;;;;;;;21.87;13.60;;;1.90;99.90;;;;;;4999270;28;20182;-94
2022/11/22 09:21:04;;;;;;;21.47;13.03;;;1.90;99.90;;;;;;5016892;28;20297;-96
2022/11/22 09:23:31;;;;;;;30.40;13.97;;;1.90;99.90;;;;;;4998917;28;20191;-96
2022/11/22 09:26:15;;;;;;;23.63;14.33;;;2.00;99.90;;;;;;4998886;28;20237;-95
2022/11/22 09:28:41;;;;;;;25.37;13.50;;;1.90;99.90;;;;;;4999098;28;20180;-95
2022/11/22 09:31:09;;;;;;;22.17;13.97;;;2.00;99.90;;;;;;5016842;28;20171;-93
2022/11/22 09:33:37;;;;;;;23.10;13.60;;;2.00;99.90;;;;;;4998895;28;20533;-93
2022/11/22 09:36:11;;;;;;;20.30;13.40;;;2.00;99.90;;;;;;5000131;28;20181;-94
2022/11/22 09:38:37;;;;;;;21.70;13.73;;;2.00;99.90;;;;;;4999331;28;20179;-94
2022/11/22 09:41:15;;;;;;;23.73;13.70;;;2.00;99.90;;;;;;4999154;28;20187;-92
2022/11/22 09:44:02;;;;;;;22.77;13.83;;;2.00;99.90;;;;;;5016574;28;20305;-93
2022/11/22 09:46:27;;;;;;;24.47;13.90;;;2.00;99.90;;;;;;4999026;28;20214;-92
2022/11/22 09:49:02;;;;;;;20.73;13.50;;;2.10;99.90;;;;;;5007794;28;20180;-91
2022/11/22 09:51:48;;;;;;;24.27;14.03;;;2.10;99.90;;;;;;4995690;28;20183;-95
2022/11/22 09:54:43;;;;;;;20.57;14.13;;;2.10;99.90;;;;;;4980151;28;20168;-93
2022/11/22 09:57:18;;;;;;;23.13;13.63;;;2.20;99.90;;;;;;4980213;28;20176;-93
2022/11/22 09:59:46;;;;;;;20.97;13.20;;;2.20;99.90;;;;;;4997502;28;20178;-95
2022/11/22 10:02:24;;;;;;;22.67;14.47;;;2.20;99.90;;;;;;5015829;28;20179;-93
2022/11/22 10:04:56;;;;;;;23.00;13.33;;;2.30;99.90;;;;;;4998334;28;20270;-93
2022/11/22 10:07:43;;;;;;;23.53;13.63;;;2.30;99.90;;;;;;4997889;28;20302;-95
2022/11/22 10:10:16;;;;;;;25.03;14.70;;;2.40;99.90;;;;;;4998232;28;20257;-95
2022/11/22 10:12:58;;;;;;;24.03;14.40;;;2.40;99.90;;;;;;4998096;28;20709;-95
2022/11/22 10:15:29;;;;;;;21.93;13.60;;;2.50;99.90;;;;;;4998733;28;20175;-96
2022/11/22 10:18:00;;;;;;;24.47;15.00;;;2.60;99.90;;;;;;5014381;28;20525;-95
2022/11/22 10:20:33;;;;;;;24.43;14.37;;;2.60;99.90;;;;;;5015616;28;20190;-95
2022/11/22 10:22:59;;;;;;;26.27;14.97;;;2.60;99.90;;;;;;4998859;28;20179;-94
2022/11/22 10:25:46;;;;;;;23.67;14.27;;;2.60;99.90;;;;;;5014461;28;20175;-93
2022/11/22 10:28:34;;;;;;;24.27;14.43;;;2.70;99.90;;;;;;4998127;28;20187;-93
2022/11/22 10:31:30;;;;;;;19.10;12.93;;;2.70;99.90;;;;;;4998940;28;20171;-90
2022/11/22 10:34:12;;;;;;;22.77;13.83;;;2.70;99.90;;;;;;4999055;28;20622;-93
2022/11/22 10:36:40;;;;;;;25.20;14.03;;;2.70;99.90;;;;;;4999009;28;20175;-94
2022/11/22 10:39:44;;;;;;;24.17;14.23;;;2.70;99.90;;;;;;5014409;28;20179;-93
2022/11/22 10:42:27;;;;;;;27.00;14.73;;;2.80;99.90;;;;;;4994480;28;20233;-96
2022/11/22 10:44:59;;;;;;;25.43;14.20;;;2.70;99.90;;;;;;4998527;28;20179;-94
2022/11/22 10:47:50;;;;;;;26.53;14.67;;;2.80;99.90;;;;;;4998382;28;20211;-91
2022/11/22 10:50:46;;;;;;;23.23;13.73;;;2.90;99.90;;;;;;4998289;28;20198;-93
2022/11/22 10:53:44;;;;;;;21.03;13.57;;;2.90;99.90;;;;;;4998229;28;20561;-94
2022/11/22 10:56:18;;;;;;;23.23;14.63;;;2.90;99.90;;;;;;4998259;28;20183;-92
2022/11/22 10:59:03;;;;;;;23.10;14.10;;;2.90;99.90;;;;;;4997437;28;20310;-94
2022/11/22 11:01:35;;;;;;;23.73;14.00;;;3.00;99.90;;;;;;4997436;28;20218;-94
2022/11/22 11:04:03;;;;;;;25.33;13.57;;;3.00;99.90;;;;;;4997684;28;20171;-94
2022/11/22 11:06:46;;;;;;;23.43;14.00;;;3.10;99.90;;;;;;4997432;28;20207;-94
2022/11/22 11:09:25;;;;;;;24.10;14.33;;;3.10;99.90;;;;;;4997999;28;20172;-94
2022/11/22 11:11:51;;;;;;;27.13;14.23;;;3.20;99.90;;;;;;5000747;28;20261;-95
2022/11/22 11:14:28;;;;;;;22.00;13.03;;;3.20;99.90;;;;;;5001443;28;20171;-94
2022/11/22 11:16:57;;;;;;;24.10;14.40;;;3.20;99.90;;;;;;5001689;28;20186;-94
2022/11/22 11:19:24;;;;;;;21.30;13.67;;;3.30;99.90;;;;;;4991135;28;20188;-94
2022/11/22 11:22:01;;;;;;;23.67;13.97;;;3.30;99.90;;;;;;4981333;28;20657;-87
2022/11/22 11:24:30;;;;;;;21.00;13.37;;;3.30;99.90;;;;;;4981580;28;20179;-92
2022/11/22 11:26:58;;;;;;;22.83;13.73;;;3.40;99.90;;;;;;4993246;28;20218;-91
2022/11/22 11:29:38;;;;;;;22.67;12.97;;;3.30;99.90;;;;;;5001244;28;20178;-94
2022/11/22 11:32:08;;;;;;;19.03;12.67;;;3.40;99.90;;;;;;5000935;28;20178;-94
2022/11/22 11:34:35;;;;;;;19.60;12.83;;;3.50;99.90;;;;;;5000810;28;20522;-93
2022/11/22 11:37:04;;;;;;;20.80;12.50;;;3.40;99.90;;;;;;5018312;28;20183;-94
2022/11/22 11:39:32;;;;;;;21.37;12.60;;;3.50;99.90;;;;;;5000792;28;20176;-89
2022/11/22 11:41:58;;;;;;;21.73;12.33;;;3.50;99.90;;;;;;5000419;28;20194;-90
2022/11/22 11:44:30;;;;;;;18.43;11.83;;;3.60;99.90;;;;;;5000656;28;20180;-92
2022/11/22 11:46:59;;;;;;;20.33;12.13;;;3.60;99.90;;;;;;5000524;28;20218;-92
2022/11/22 11:49:27;;;;;;;21.70;12.97;;;3.70;99.90;;;;;;5016849;28;20645;-88
2022/11/22 11:51:58;;;;;;;16.87;11.67;;;3.70;99.90;;;;;;5000479;28;20176;-88
2022/11/22 11:54:39;;;;;;;19.07;11.73;;;3.80;99.90;;;;;;5000665;28;20172;-92
2022/11/22 11:57:26;;;;;;;21.13;12.53;;;3.80;99.90;;;;;;5000137;28;20682;-90
2022/11/22 11:59:53;;;;;;;18.17;11.53;;;3.90;99.90;;;;;;4986968;28;20195;-90
2022/11/22 12:02:40;;;;;;;19.20;10.87;;;3.90;99.90;;;;;;4999827;28;20179;-93
2022/11/22 12:05:25;;;;;;;19.57;11.63;;;4.00;99.90;;;;;;5012573;28;20194;-91
2022/11/22 12:07:54;;;;;;;19.27;11.87;;;4.00;99.90;;;;;;4980682;28;20204;-91
2022/11/22 12:10:55;;;;;;;17.87;11.07;;;4.00;99.90;;;;;;4980642;28;20223;-89
2022/11/22 12:13:37;;;;;;;17.10;10.83;;;4.00;99.90;;;;;;4987516;28;20244;-90
2022/11/22 12:16:17;;;;;;;19.40;10.63;;;4.10;99.90;;;;;;5017538;28;20566;-89
2022/11/22 12:18:58;;;;;;;16.73;10.90;;;4.10;99.90;;;;;;4999842;28;20507;-91
2022/11/22 12:22:01;;;;;;;18.13;11.07;;;4.10;99.90;;;;;;5016119;28;20180;-91
2022/11/22 12:24:52;;;;;;;16.67;10.80;;;4.10;99.90;;;;;;5016217;28;20186;-92
2022/11/22 12:27:19;;;;;;;16.47;10.13;;;4.10;99.90;;;;;;5015445;28;20303;-92
2022/11/22 12:29:45;;;;;;;19.03;10.73;;;4.10;99.90;;;;;;5016130;28;20179;-90
2022/11/22 12:32:17;;;;;;;16.70;10.87;;;4.10;99.90;;;;;;5017243;28;20179;-91
2022/11/22 12:34:48;;;;;;;18.33;11.23;;;4.10;99.90;;;;;;4999694;28;20172;-93
2022/11/22 12:38:01;;;;;;;18.30;10.57;;;4.20;99.90;;;;;;5016236;28;20183;-92
2022/11/22 12:40:41;;;;;;;19.00;10.50;;;4.20;99.90;;;;;;5011735;28;20278;-92
2022/11/22 12:43:15;;;;;;;17.77;10.00;;;4.20;99.90;;;;;;4999302;28;20233;-92
2022/11/22 12:45:50;;;;;;;20.33;10.57;;;4.30;99.90;;;;;;4999459;28;20172;-91
2022/11/22 12:48:55;;;;;;;15.63;10.00;;;4.30;99.90;;;;;;4998979;28;20185;-95
2022/11/22 12:51:38;;;;;;;15.83;9.83;;;4.30;99.90;;;;;;4999597;28;20183;-94
2022/11/22 12:54:09;;;;;;;14.70;9.90;;;4.40;99.90;;;;;;5016082;28;20266;-93
2022/11/22 12:57:00;;;;;;;16.63;10.50;;;4.40;99.90;;;;;;5017146;28;20245;-90
2022/11/22 12:59:41;;;;;;;19.83;10.87;;;4.40;99.90;;;;;;4998670;28;20304;-92
2022/11/22 13:02:21;;;;;;;18.30;11.03;;;4.40;99.90;;;;;;5015393;28;20182;-94
2022/11/22 13:04:52;;;;;;;17.03;10.53;;;4.50;99.90;;;;;;4999284;28;20626;-93